Time;durP1;ratioP1;P1;durP2;ratioP2;P2;SDS_P1;SDS_P2;PMS_P1;PMS_P2;Temp;Humidity;BMP_temperature;BMP_pressure;BME280_temperature;BME280_humidity;BME280_pressure;Samples;Min_cycle;Max_cycle;Signal;HPM_P1;HPM_P2
2023/01/28 00:00:16;;;;;;;0.60;0.60;;;0.20;99.90;;;;;;5095492;28;20437;-81
2023/01/28 00:02:43;;;;;;;0.30;0.30;;;0.30;99.90;;;;;;5095882;28;20944;-81
2023/01/28 00:05:10;;;;;;;0.30;0.30;;;0.30;99.90;;;;;;5095742;28;20452;-81
2023/01/28 00:07:37;;;;;;;0.40;0.40;;;0.30;99.90;;;;;;5095761;28;20463;-81
2023/01/28 00:10:05;;;;;;;0.30;0.20;;;0.20;99.90;;;;;;5095276;28;20832;-81
2023/01/28 00:12:31;;;;;;;0.53;0.53;;;0.20;99.90;;;;;;5095668;28;20448;-81
2023/01/28 00:14:59;;;;;;;0.40;0.30;;;0.20;99.90;;;;;;5095269;28;20492;-81
2023/01/28 00:17:26;;;;;;;0.33;0.33;;;0.30;99.90;;;;;;5095499;28;20453;-81
2023/01/28 00:19:53;;;;;;;0.43;0.43;;;0.30;99.90;;;;;;5095509;28;20441;-81
2023/01/28 00:22:20;;;;;;;0.30;0.30;;;0.30;99.90;;;;;;5095469;28;20456;-81
2023/01/28 00:24:47;;;;;;;0.30;0.30;;;0.30;99.90;;;;;;5094964;28;20456;-81
2023/01/28 00:27:13;;;;;;;0.30;0.30;;;0.30;99.90;;;;;;5095350;28;20448;-81
2023/01/28 00:29:40;;;;;;;0.30;0.30;;;0.30;99.90;;;;;;5095199;28;20487;-81
2023/01/28 00:32:09;;;;;;;0.70;0.70;;;0.20;99.90;;;;;;5095252;28;20452;-81
2023/01/28 00:34:35;;;;;;;0.30;0.20;;;0.20;99.90;;;;;;5094902;28;20513;-81
2023/01/28 00:37:02;;;;;;;0.30;0.30;;;0.20;99.90;;;;;;5095115;28;20465;-81
2023/01/28 00:39:29;;;;;;;0.47;0.47;;;0.20;99.90;;;;;;5095677;28;20452;-81
2023/01/28 00:41:56;;;;;;;0.77;0.77;;;0.30;99.90;;;;;;5095052;28;20448;-81
2023/01/28 00:44:22;;;;;;;0.30;0.30;;;0.30;99.90;;;;;;5094673;28;20457;-81
2023/01/28 00:46:49;;;;;;;0.30;0.30;;;0.20;99.90;;;;;;5094882;28;20473;-81
2023/01/28 00:49:17;;;;;;;1.37;0.70;;;0.30;99.90;;;;;;5094617;28;20423;-81
2023/01/28 00:51:44;;;;;;;5.33;0.97;;;0.30;99.90;;;;;;5094925;28;20448;-81
2023/01/28 00:54:12;;;;;;;2.10;0.60;;;0.20;99.90;;;;;;5094822;28;20448;-81
2023/01/28 00:56:39;;;;;;;0.30;0.30;;;0.20;99.90;;;;;;5094759;28;20468;-81
2023/01/28 00:59:05;;;;;;;0.70;0.63;;;0.20;99.90;;;;;;5094401;28;20449;-81
2023/01/28 01:01:33;;;;;;;0.30;0.20;;;0.20;99.90;;;;;;5094740;28;20446;-81
2023/01/28 01:04:02;;;;;;;0.50;0.50;;;0.30;99.90;;;;;;5094661;28;20449;-81
2023/01/28 01:06:32;;;;;;;0.30;0.30;;;0.30;99.90;;;;;;5094552;28;20468;-81
2023/01/28 01:08:58;;;;;;;0.40;0.40;;;0.40;99.90;;;;;;5094569;28;20445;-81
2023/01/28 01:11:25;;;;;;;0.30;0.30;;;0.30;99.90;;;;;;5093642;28;20450;-81
2023/01/28 01:13:55;;;;;;;0.30;0.30;;;0.40;99.90;;;;;;5094481;28;20440;-81
2023/01/28 01:16:23;;;;;;;0.30;0.30;;;0.30;99.90;;;;;;5094325;28;20500;-81
2023/01/28 01:18:51;;;;;;;0.40;0.40;;;0.40;99.90;;;;;;5094070;28;20970;-81
2023/01/28 01:21:20;;;;;;;0.40;0.37;;;0.40;99.90;;;;;;5095173;28;20444;-81
2023/01/28 01:23:48;;;;;;;0.30;0.20;;;0.30;99.90;;;;;;5094290;28;20445;-81
2023/01/28 01:26:15;;;;;;;6.23;1.03;;;0.30;99.90;;;;;;5094155;28;20806;-81
2023/01/28 01:28:42;;;;;;;3.27;0.63;;;0.30;99.90;;;;;;5094161;28;20427;-81
2023/01/28 01:31:13;;;;;;;0.30;0.30;;;0.30;99.90;;;;;;5094063;28;20485;-81
2023/01/28 01:33:41;;;;;;;0.40;0.30;;;0.30;99.90;;;;;;5094166;28;20426;-81
2023/01/28 01:36:08;;;;;;;0.40;0.40;;;0.30;99.90;;;;;;5093991;28;20469;-81
2023/01/28 01:38:35;;;;;;;0.87;0.83;;;0.30;99.90;;;;;;5093693;28;20456;-81
2023/01/28 01:41:05;;;;;;;0.60;0.50;;;0.30;99.90;;;;;;5093696;28;20494;-81
2023/01/28 01:43:48;;;;;;;0.30;0.20;;;0.30;99.90;;;;;;5093630;28;20828;-81
2023/01/28 01:46:18;;;;;;;1.03;0.30;;;0.40;99.90;;;;;;5093835;28;20464;-81
2023/01/28 01:48:46;;;;;;;0.30;0.30;;;0.50;99.90;;;;;;5093889;28;20935;-81
2023/01/28 01:51:15;;;;;;;2.20;0.77;;;0.50;99.90;;;;;;5093761;28;20480;-81
2023/01/28 01:53:46;;;;;;;0.30;0.30;;;0.50;99.90;;;;;;5093807;28;20444;-81
2023/01/28 01:56:18;;;;;;;0.40;0.40;;;0.50;99.90;;;;;;5093401;28;21002;-82
2023/01/28 01:58:49;;;;;;;0.70;0.40;;;0.50;99.90;;;;;;5093761;28;20437;-81
2023/01/28 02:01:17;;;;;;;0.43;0.43;;;0.40;99.90;;;;;;5093687;28;20425;-81
2023/01/28 02:03:51;;;;;;;0.30;0.20;;;0.40;99.90;;;;;;5093316;28;20448;-81
2023/01/28 02:06:18;;;;;;;0.40;0.30;;;0.40;99.90;;;;;;5093314;28;20989;-81
2023/01/28 02:08:45;;;;;;;0.30;0.30;;;0.40;99.90;;;;;;5093572;28;20449;-81
2023/01/28 02:11:14;;;;;;;0.37;0.37;;;0.30;99.90;;;;;;5093133;28;21007;-81
2023/01/28 02:13:44;;;;;;;0.30;0.30;;;0.40;99.90;;;;;;5093537;28;20444;-81
2023/01/28 02:16:12;;;;;;;0.30;0.30;;;0.30;99.90;;;;;;5092991;28;20492;-81
2023/01/28 02:18:39;;;;;;;0.40;0.40;;;0.30;99.90;;;;;;5093521;28;20943;-81
2023/01/28 02:21:40;;;;;;;0.63;0.63;;;0.30;99.90;;;;;;5093446;28;20441;-81
2023/01/28 02:24:26;;;;;;;0.30;0.30;;;0.30;99.90;;;;;;5089731;28;20456;-81
2023/01/28 02:27:14;;;;;;;0.73;0.73;;;0.30;99.90;;;;;;5100136;28;20487;-81
2023/01/28 02:29:48;;;;;;;0.50;0.50;;;0.30;99.90;;;;;;5100134;28;20452;-81
2023/01/28 02:32:20;;;;;;;0.30;0.30;;;0.30;99.90;;;;;;5100080;28;20420;-81
2023/01/28 02:34:51;;;;;;;1.60;1.13;;;0.40;99.90;;;;;;5100057;28;20424;-81
2023/01/28 02:37:21;;;;;;;1.10;0.50;;;0.30;99.90;;;;;;5099805;28;20905;-81
2023/01/28 02:39:51;;;;;;;0.30;0.30;;;0.40;99.90;;;;;;5099772;28;20425;-81
2023/01/28 02:42:21;;;;;;;0.50;0.50;;;0.40;99.90;;;;;;5100091;28;20440;-81
2023/01/28 02:44:49;;;;;;;0.30;0.27;;;0.40;99.90;;;;;;5100001;28;20515;-81
2023/01/28 02:50:03;;;;;;;0.50;0.50;;;0.40;99.90;;;;;;5099712;28;20392;-81
2023/01/28 02:55:38;;;;;;;0.40;0.40;;;0.40;99.90;;;;;;5099871;28;20810;-81
2023/01/28 02:58:17;;;;;;;0.30;0.30;;;0.40;99.90;;;;;;5099949;28;20524;-81
2023/01/28 03:00:53;;;;;;;0.60;0.60;;;0.40;99.90;;;;;;5099897;28;20484;-81
2023/01/28 03:03:25;;;;;;;0.50;0.50;;;0.40;99.90;;;;;;5099539;28;20433;-81
2023/01/28 03:06:06;;;;;;;0.50;0.47;;;0.40;99.90;;;;;;5099785;28;20479;-81
2023/01/28 03:39:06;;;;;;;0.30;0.30;;;0.50;99.90;;;;;;5096412;28;20543;-81
2023/01/28 03:41:32;;;;;;;1.80;0.83;;;0.40;99.90;;;;;;5096238;28;20453;-81
2023/01/28 03:46:43;;;;;;;0.30;0.30;;;0.40;99.90;;;;;;5096097;28;20535;-81
2023/01/28 03:49:11;;;;;;;0.30;0.30;;;0.40;99.90;;;;;;5095842;28;20440;-81
2023/01/28 03:51:39;;;;;;;0.50;0.50;;;0.40;99.90;;;;;;5096024;28;20470;-81
2023/01/28 03:54:06;;;;;;;0.40;0.40;;;0.30;99.90;;;;;;5096012;28;20453;-81
2023/01/28 03:56:36;;;;;;;0.40;0.40;;;0.30;99.90;;;;;;5095892;28;20443;-81
2023/01/28 03:59:03;;;;;;;0.30;0.30;;;0.20;99.90;;;;;;5095628;28;20456;-81
2023/01/28 04:01:30;;;;;;;0.30;0.20;;;0.20;99.90;;;;;;5095858;28;20426;-81
2023/01/28 04:03:56;;;;;;;0.30;0.30;;;0.10;99.90;;;;;;5095852;28;20479;-81
2023/01/28 04:06:25;;;;;;;0.30;0.30;;;0.10;99.90;;;;;;5095718;28;20472;-81
2023/01/28 04:08:53;;;;;;;0.30;0.27;;;0.20;99.90;;;;;;5095764;28;20445;-81
2023/01/28 04:11:20;;;;;;;0.50;0.40;;;0.20;99.90;;;;;;5095401;28;20469;-81
2023/01/28 04:13:48;;;;;;;0.60;0.40;;;0.20;99.90;;;;;;5095651;28;20453;-81
2023/01/28 04:16:18;;;;;;;1.13;0.67;;;0.20;99.90;;;;;;5095047;28;20494;-81
2023/01/28 04:18:46;;;;;;;4.97;2.00;;;0.20;99.90;;;;;;5095780;28;20488;-81
2023/01/28 04:21:12;;;;;;;0.30;0.30;;;0.20;99.90;;;;;;5095513;28;20517;-81
2023/01/28 04:23:40;;;;;;;0.30;0.30;;;0.30;99.90;;;;;;5095178;28;20948;-81
2023/01/28 04:26:07;;;;;;;0.30;0.30;;;0.20;99.90;;;;;;5095371;28;20472;-81
2023/01/28 04:28:34;;;;;;;8.70;0.90;;;0.20;99.90;;;;;;5095363;28;20445;-81
2023/01/28 04:31:01;;;;;;;0.30;0.20;;;0.20;99.90;;;;;;5095252;28;20501;-81
2023/01/28 04:33:28;;;;;;;0.30;0.30;;;0.20;99.90;;;;;;5095493;28;20445;-81
2023/01/28 04:35:54;;;;;;;0.30;0.30;;;0.30;99.90;;;;;;5095163;28;20469;-81
2023/01/28 04:38:21;;;;;;;0.30;0.30;;;0.30;99.90;;;;;;5095242;28;20433;-82
2023/01/28 04:40:51;;;;;;;0.70;0.70;;;0.30;99.90;;;;;;5095168;28;20407;-81
2023/01/28 04:43:18;;;;;;;0.30;0.30;;;0.30;99.90;;;;;;5095097;28;20445;-81
2023/01/28 04:45:45;;;;;;;0.50;0.50;;;0.40;99.90;;;;;;5093809;28;20473;-81
2023/01/28 04:48:12;;;;;;;0.30;0.30;;;0.40;99.90;;;;;;5094984;28;20444;-81
2023/01/28 04:50:39;;;;;;;0.60;0.40;;;0.30;99.90;;;;;;5094879;28;20460;-81
2023/01/28 04:53:06;;;;;;;0.30;0.30;;;0.40;99.90;;;;;;5094911;28;20455;-81
2023/01/28 04:55:33;;;;;;;0.30;0.30;;;0.40;99.90;;;;;;5094788;28;20476;-81
2023/01/28 04:58:01;;;;;;;0.30;0.30;;;0.40;99.90;;;;;;5094799;28;20448;-81
2023/01/28 05:00:28;;;;;;;0.30;0.30;;;0.30;99.90;;;;;;5094445;28;20966;-81
2023/01/28 05:02:54;;;;;;;0.30;0.30;;;0.30;99.90;;;;;;5094394;28;20939;-81
2023/01/28 05:05:21;;;;;;;0.40;0.40;;;0.30;99.90;;;;;;5094292;28;20981;-81
2023/01/28 05:07:52;;;;;;;0.30;0.30;;;0.30;99.90;;;;;;5094639;28;20437;-81
2023/01/28 05:10:19;;;;;;;1.70;0.43;;;0.30;99.90;;;;;;5094553;28;20439;-81
2023/01/28 05:12:46;;;;;;;0.30;0.30;;;0.30;99.90;;;;;;5094172;28;20480;-81
2023/01/28 05:15:15;;;;;;;0.40;0.40;;;0.30;99.90;;;;;;5093909;28;21014;-81
2023/01/28 05:17:42;;;;;;;1.17;1.07;;;0.30;99.90;;;;;;5094591;28;20430;-81
2023/01/28 05:20:11;;;;;;;0.30;0.20;;;0.30;99.90;;;;;;5094391;28;20534;-81
2023/01/28 05:22:38;;;;;;;0.30;0.20;;;0.30;99.90;;;;;;5094349;28;20448;-81
2023/01/28 05:25:05;;;;;;;1.03;0.63;;;0.30;99.90;;;;;;5094215;28;20445;-81
2023/01/28 05:27:33;;;;;;;0.30;0.30;;;0.40;99.90;;;;;;5093934;28;20460;-81
2023/01/28 05:30:00;;;;;;;1.43;0.70;;;0.40;99.90;;;;;;5094236;28;20446;-81
2023/01/28 05:32:28;;;;;;;0.50;0.40;;;0.40;99.90;;;;;;5093775;28;21017;-81
2023/01/28 05:34:54;;;;;;;0.50;0.50;;;0.50;99.90;;;;;;5094008;28;20453;-81
2023/01/28 05:37:21;;;;;;;0.40;0.40;;;0.40;99.90;;;;;;5093775;28;20448;-81
2023/01/28 05:39:48;;;;;;;0.70;0.70;;;0.40;99.90;;;;;;5094051;28;20453;-81
2023/01/28 05:42:16;;;;;;;0.30;0.30;;;0.30;99.90;;;;;;5093684;28;20936;-81
2023/01/28 05:44:43;;;;;;;0.30;0.20;;;0.30;99.90;;;;;;5094521;28;20536;-81
2023/01/28 05:47:09;;;;;;;0.73;0.60;;;0.30;99.90;;;;;;5093851;28;20464;-81
2023/01/28 05:49:37;;;;;;;0.60;0.60;;;0.20;99.90;;;;;;5093913;28;20820;-81
2023/01/28 05:52:04;;;;;;;0.30;0.20;;;0.30;99.90;;;;;;5093765;28;20476;-81
2023/01/28 05:54:31;;;;;;;0.40;0.40;;;0.30;99.90;;;;;;5093863;28;20407;-81
2023/01/28 05:56:57;;;;;;;0.90;0.70;;;0.30;99.90;;;;;;5093006;28;20995;-81
2023/01/28 05:59:24;;;;;;;0.30;0.20;;;0.30;99.90;;;;;;5093455;28;20444;-81
2023/01/28 06:01:51;;;;;;;0.47;0.47;;;0.30;99.90;;;;;;5093710;28;20424;-81
2023/01/28 06:04:19;;;;;;;0.60;0.60;;;0.30;99.90;;;;;;5093667;28;20438;-81
2023/01/28 06:06:47;;;;;;;0.30;0.20;;;0.30;99.90;;;;;;5093236;28;20836;-81
2023/01/28 06:09:13;;;;;;;1.63;0.40;;;0.40;99.90;;;;;;5093240;28;20444;-81
2023/01/28 06:11:40;;;;;;;1.57;0.73;;;0.40;99.90;;;;;;5093508;28;20541;-81
2023/01/28 06:14:07;;;;;;;0.30;0.30;;;0.40;99.90;;;;;;5093229;28;20463;-81
2023/01/28 06:16:34;;;;;;;0.40;0.30;;;0.40;99.90;;;;;;5093476;28;20471;-81
2023/01/28 06:19:00;;;;;;;0.60;0.30;;;0.40;99.90;;;;;;5093549;28;20452;-81
2023/01/28 06:21:27;;;;;;;0.30;0.20;;;0.40;99.90;;;;;;5093480;28;20440;-81
2023/01/28 06:23:55;;;;;;;0.30;0.30;;;0.40;99.90;;;;;;5093226;28;20940;-81
2023/01/28 06:26:22;;;;;;;0.87;0.87;;;0.40;99.90;;;;;;5093391;28;20464;-81
2023/01/28 06:28:49;;;;;;;0.40;0.37;;;0.40;99.90;;;;;;5093471;28;20452;-81
2023/01/28 06:31:15;;;;;;;0.30;0.30;;;0.40;99.90;;;;;;5093309;28;20495;-81
2023/01/28 06:33:42;;;;;;;0.80;0.80;;;0.40;99.90;;;;;;5093386;28;20455;-81
2023/01/28 06:36:09;;;;;;;1.30;1.20;;;0.50;99.90;;;;;;5093292;28;20475;-81
2023/01/28 06:38:36;;;;;;;0.40;0.30;;;0.60;99.90;;;;;;5093064;28;20445;-81
2023/01/28 06:41:04;;;;;;;0.97;0.80;;;0.60;99.90;;;;;;5093275;28;20449;-81
2023/01/28 06:43:31;;;;;;;0.60;0.60;;;0.60;99.90;;;;;;5093327;28;20447;-81
2023/01/28 06:45:58;;;;;;;6.20;0.70;;;0.60;99.90;;;;;;5092861;28;20979;-81
2023/01/28 06:48:26;;;;;;;0.30;0.20;;;0.60;99.90;;;;;;5093942;28;20426;-80
2023/01/28 06:50:53;;;;;;;1.33;1.33;;;0.60;99.90;;;;;;5093284;28;20445;-81
2023/01/28 06:53:21;;;;;;;0.40;0.40;;;0.50;99.90;;;;;;5093138;28;20488;-81
2023/01/28 06:55:47;;;;;;;1.90;0.70;;;0.60;99.90;;;;;;5093075;28;20500;-81
2023/01/28 06:58:16;;;;;;;0.30;0.20;;;0.60;99.90;;;;;;5093163;28;20452;-81
2023/01/28 07:00:42;;;;;;;0.73;0.50;;;0.60;99.90;;;;;;5092854;28;20948;-81
2023/01/28 07:03:09;;;;;;;0.50;0.50;;;0.60;99.90;;;;;;5093091;28;20519;-80
2023/01/28 07:05:36;;;;;;;0.50;0.50;;;0.50;99.90;;;;;;5092970;28;20476;-80
2023/01/28 07:08:03;;;;;;;0.60;0.60;;;0.60;99.90;;;;;;5093034;28;20815;-80
2023/01/28 07:10:30;;;;;;;0.30;0.30;;;0.60;99.90;;;;;;5096234;28;20958;-80
2023/01/28 07:12:57;;;;;;;0.50;0.50;;;0.60;99.90;;;;;;5096399;28;21011;-80
2023/01/28 07:15:25;;;;;;;0.50;0.40;;;0.50;99.90;;;;;;5096229;28;21014;-80
2023/01/28 07:17:52;;;;;;;1.27;0.60;;;0.60;99.90;;;;;;5096733;28;20455;-80
2023/01/28 07:20:18;;;;;;;0.33;0.30;;;0.60;99.90;;;;;;5096385;28;20951;-80
2023/01/28 07:22:46;;;;;;;1.07;1.07;;;0.60;99.90;;;;;;5096335;28;20940;-80
2023/01/28 07:25:14;;;;;;;0.60;0.60;;;0.60;99.90;;;;;;5096508;28;20480;-80
2023/01/28 07:27:47;;;;;;;0.60;0.60;;;0.60;99.90;;;;;;5096238;28;20448;-82
2023/01/28 07:30:15;;;;;;;0.30;0.20;;;0.60;99.90;;;;;;5096504;28;20463;-81
2023/01/28 07:32:43;;;;;;;0.40;0.40;;;0.60;99.90;;;;;;5096354;28;20480;-81
2023/01/28 07:35:10;;;;;;;0.40;0.40;;;0.70;99.90;;;;;;5096294;28;20487;-81
2023/01/28 07:37:36;;;;;;;0.50;0.40;;;0.70;99.90;;;;;;5096337;28;20452;-81
2023/01/28 07:40:04;;;;;;;0.40;0.40;;;0.70;99.90;;;;;;5096306;28;20449;-81
2023/01/28 07:42:31;;;;;;;0.53;0.37;;;0.70;99.90;;;;;;5095961;28;20974;-81
2023/01/28 07:44:58;;;;;;;0.60;0.60;;;0.80;99.90;;;;;;5096197;28;20441;-81
2023/01/28 07:47:25;;;;;;;0.30;0.30;;;0.80;99.90;;;;;;5096176;28;20813;-81
2023/01/28 07:49:53;;;;;;;2.40;0.50;;;0.80;99.90;;;;;;5096164;28;20428;-81
2023/01/28 07:52:20;;;;;;;0.50;0.50;;;0.90;99.90;;;;;;5096015;28;20483;-81
2023/01/28 07:54:46;;;;;;;0.97;0.87;;;0.90;99.90;;;;;;5095974;28;20440;-80
2023/01/28 07:57:13;;;;;;;0.40;0.40;;;0.90;99.90;;;;;;5096273;28;20445;-80
2023/01/28 07:59:40;;;;;;;0.30;0.30;;;1.00;99.90;;;;;;5095820;28;20819;-80
2023/01/28 08:02:09;;;;;;;0.30;0.30;;;1.00;99.90;;;;;;5095853;28;20456;-80
2023/01/28 08:04:36;;;;;;;0.67;0.50;;;1.00;99.90;;;;;;5095840;28;20444;-80
2023/01/28 08:07:05;;;;;;;0.90;0.50;;;1.00;99.90;;;;;;5095939;28;20823;-80
2023/01/28 08:09:33;;;;;;;2.63;0.93;;;1.00;99.90;;;;;;5095325;28;20974;-80
2023/01/28 08:11:59;;;;;;;0.50;0.50;;;1.10;99.90;;;;;;5095583;28;20484;-81
2023/01/28 08:14:26;;;;;;;0.40;0.40;;;1.00;99.90;;;;;;5095127;28;21011;-80
2023/01/28 08:16:53;;;;;;;0.73;0.50;;;1.00;99.90;;;;;;5095526;28;20475;-80
2023/01/28 08:19:20;;;;;;;0.40;0.40;;;1.10;99.90;;;;;;5095282;28;20452;-80
2023/01/28 08:21:47;;;;;;;0.50;0.50;;;1.10;99.90;;;;;;5095525;28;20449;-81
2023/01/28 08:24:16;;;;;;;0.33;0.33;;;1.20;99.90;;;;;;5095471;28;20445;-80
2023/01/28 08:26:43;;;;;;;0.30;0.30;;;1.20;99.90;;;;;;5095362;28;20469;-80
2023/01/28 08:29:09;;;;;;;0.30;0.30;;;1.20;99.90;;;;;;5095345;28;20445;-80
2023/01/28 08:31:36;;;;;;;0.40;0.40;;;1.30;99.90;;;;;;5094935;28;20967;-80
2023/01/28 08:34:03;;;;;;;0.43;0.43;;;1.20;99.90;;;;;;5095255;28;20452;-80
2023/01/28 08:36:29;;;;;;;0.30;0.30;;;1.20;99.90;;;;;;5094884;28;20838;-80
2023/01/28 08:38:56;;;;;;;0.30;0.30;;;1.20;99.90;;;;;;5095172;28;20453;-80
2023/01/28 08:41:24;;;;;;;0.30;0.30;;;1.10;99.90;;;;;;5094872;28;20948;-80
2023/01/28 08:43:51;;;;;;;0.30;0.30;;;1.00;99.90;;;;;;5095126;28;20449;-80
2023/01/28 08:46:17;;;;;;;0.40;0.40;;;1.10;99.90;;;;;;5094947;28;20480;-80
2023/01/28 08:48:44;;;;;;;0.40;0.37;;;1.10;99.90;;;;;;5095077;28;20448;-80
2023/01/28 08:51:11;;;;;;;0.40;0.30;;;1.10;99.90;;;;;;5094977;28;20443;-80
2023/01/28 08:53:38;;;;;;;0.47;0.47;;;1.10;99.90;;;;;;5094502;28;20477;-80
2023/01/28 08:56:05;;;;;;;0.60;0.60;;;1.10;99.90;;;;;;5094762;28;20469;-80
2023/01/28 08:58:33;;;;;;;1.67;0.60;;;1.10;99.90;;;;;;5094812;28;20467;-80
2023/01/28 09:01:05;;;;;;;0.70;0.50;;;1.10;99.90;;;;;;5094448;28;20451;-80
2023/01/28 09:03:32;;;;;;;0.60;0.60;;;1.10;99.90;;;;;;5094776;28;20479;-80
2023/01/28 09:06:00;;;;;;;0.70;0.70;;;1.10;99.90;;;;;;5094225;28;20477;-80
2023/01/28 09:08:27;;;;;;;0.30;0.30;;;1.10;99.90;;;;;;5094583;28;20449;-80
2023/01/28 09:10:55;;;;;;;0.87;0.87;;;1.10;99.90;;;;;;5094232;28;20955;-80
2023/01/28 09:13:22;;;;;;;0.30;0.30;;;1.20;99.90;;;;;;5094359;28;20480;-80
2023/01/28 09:15:50;;;;;;;0.50;0.50;;;1.30;99.90;;;;;;5094011;28;20480;-80
2023/01/28 09:18:18;;;;;;;0.30;0.30;;;1.30;99.90;;;;;;5094221;28;20421;-80
2023/01/28 09:20:44;;;;;;;0.30;0.30;;;1.30;99.90;;;;;;5094401;28;20440;-80
2023/01/28 09:23:12;;;;;;;0.30;0.30;;;1.30;99.90;;;;;;5094326;28;20467;-80
2023/01/28 09:25:38;;;;;;;0.30;0.20;;;1.40;99.90;;;;;;5094199;28;20464;-81
2023/01/28 09:28:05;;;;;;;0.80;0.80;;;1.50;99.90;;;;;;5094200;28;20447;-80
2023/01/28 09:30:33;;;;;;;0.30;0.30;;;1.50;99.90;;;;;;5093917;28;20445;-80
2023/01/28 09:33:01;;;;;;;0.30;0.30;;;1.50;99.90;;;;;;5093113;28;20856;-80
2023/01/28 09:35:28;;;;;;;0.70;0.43;;;1.60;99.90;;;;;;5093996;28;20471;-80
2023/01/28 09:37:57;;;;;;;0.40;0.40;;;1.60;99.90;;;;;;5094014;28;20455;-80
2023/01/28 09:40:33;;;;;;;2.43;0.67;;;1.70;99.90;;;;;;5093706;28;20893;-80
2023/01/28 09:43:14;;;;;;;0.90;0.90;;;1.80;99.90;;;;;;5094027;28;20432;-80
2023/01/28 09:45:43;;;;;;;0.30;0.30;;;1.80;99.90;;;;;;5093883;28;20468;-80
2023/01/28 09:48:16;;;;;;;2.00;0.93;;;1.80;99.90;;;;;;5093882;28;20445;-80
2023/01/28 09:50:47;;;;;;;0.80;0.80;;;1.90;99.90;;;;;;5093908;28;20441;-80
2023/01/28 09:53:20;;;;;;;0.40;0.30;;;1.90;99.90;;;;;;5093493;28;20472;-80
2023/01/28 09:55:50;;;;;;;2.40;0.67;;;1.90;99.90;;;;;;5093490;28;20479;-80
2023/01/28 09:58:17;;;;;;;0.40;0.40;;;2.00;99.90;;;;;;5093782;28;20453;-80
2023/01/28 10:00:53;;;;;;;2.73;0.73;;;1.90;99.90;;;;;;5093713;28;20486;-80
2023/01/28 10:03:40;;;;;;;0.30;0.20;;;1.80;99.90;;;;;;5093705;28;20435;-80
2023/01/28 10:06:20;;;;;;;4.73;1.33;;;1.80;99.90;;;;;;5093270;28;20968;-80
2023/01/28 10:09:12;;;;;;;0.50;0.40;;;1.80;99.90;;;;;;5093347;28;20443;-80
2023/01/28 10:11:53;;;;;;;0.40;0.40;;;1.90;99.90;;;;;;5093604;28;20822;-80
2023/01/28 10:14:30;;;;;;;0.50;0.50;;;1.90;99.90;;;;;;5093333;28;20499;-80
2023/01/28 10:17:06;;;;;;;0.63;0.63;;;1.90;99.90;;;;;;5093271;28;20824;-80
2023/01/28 10:19:40;;;;;;;0.30;0.23;;;1.90;99.90;;;;;;5093583;28;20420;-80
2023/01/28 10:22:11;;;;;;;0.40;0.40;;;2.00;99.90;;;;;;5093553;28;20433;-80
2023/01/28 10:24:44;;;;;;;0.67;0.67;;;1.90;99.90;;;;;;5093480;28;20439;-80
2023/01/28 10:27:15;;;;;;;0.40;0.40;;;1.90;99.90;;;;;;5093778;28;20498;-80
2023/01/28 10:29:44;;;;;;;0.50;0.50;;;1.90;99.90;;;;;;5093180;28;20432;-80
2023/01/28 10:32:21;;;;;;;0.50;0.50;;;1.80;99.90;;;;;;5093580;28;20423;-80
2023/01/28 10:34:50;;;;;;;0.40;0.40;;;1.70;99.90;;;;;;5093281;28;20448;-80
2023/01/28 10:37:17;;;;;;;0.73;0.73;;;1.60;99.90;;;;;;5093329;28;20460;-80
2023/01/28 10:39:45;;;;;;;0.30;0.30;;;1.60;99.90;;;;;;5093310;28;20456;-80
2023/01/28 10:42:20;;;;;;;1.57;0.47;;;1.60;99.90;;;;;;5093337;28;20812;-80
2023/01/28 10:44:49;;;;;;;0.70;0.40;;;1.60;99.90;;;;;;5097350;28;20444;-80
2023/01/28 10:47:27;;;;;;;0.30;0.30;;;1.60;99.90;;;;;;5097293;28;20532;-80
2023/01/28 10:49:59;;;;;;;0.57;0.57;;;1.50;99.90;;;;;;5097508;28;20452;-80
2023/01/28 10:52:26;;;;;;;8.13;1.73;;;1.50;99.90;;;;;;5097550;28;20456;-81
2023/01/28 10:55:00;;;;;;;0.40;0.40;;;1.60;99.90;;;;;;5097348;28;20448;-80
2023/01/28 10:57:27;;;;;;;0.60;0.60;;;1.60;99.90;;;;;;5098066;28;20439;-82
2023/01/28 10:59:54;;;;;;;0.60;0.43;;;1.60;99.90;;;;;;5097241;28;20455;-81
2023/01/28 11:02:28;;;;;;;0.30;0.20;;;1.70;99.90;;;;;;5096881;28;20448;-81
2023/01/28 11:05:05;;;;;;;1.70;0.40;;;1.80;99.90;;;;;;5096979;28;20429;-80
2023/01/28 11:07:32;;;;;;;0.53;0.53;;;1.90;99.90;;;;;;5097345;28;20515;-79
2023/01/28 11:09:58;;;;;;;1.10;0.57;;;2.00;99.90;;;;;;5096743;28;20975;-80
2023/01/28 11:12:27;;;;;;;1.50;1.13;;;2.00;99.90;;;;;;5096857;28;20452;-79
2023/01/28 11:14:55;;;;;;;0.40;0.40;;;2.10;99.90;;;;;;5096465;28;20483;-79
2023/01/28 11:17:24;;;;;;;0.40;0.40;;;2.00;99.90;;;;;;5096801;28;20804;-79
2023/01/28 11:19:52;;;;;;;0.50;0.50;;;1.90;99.90;;;;;;5096584;28;20968;-79
2023/01/28 11:22:26;;;;;;;0.40;0.40;;;1.90;99.90;;;;;;5096690;28;20455;-80
2023/01/28 11:24:54;;;;;;;2.47;0.93;;;1.90;99.90;;;;;;5096525;28;20908;-82
2023/01/28 11:27:27;;;;;;;0.30;0.30;;;1.90;99.90;;;;;;5096944;28;20452;-83
2023/01/28 11:29:56;;;;;;;0.50;0.50;;;1.90;99.90;;;;;;5096404;28;20404;-79
2023/01/28 11:32:26;;;;;;;0.83;0.47;;;1.90;99.90;;;;;;5096755;28;20449;-83
2023/01/28 11:34:56;;;;;;;0.30;0.30;;;1.90;99.90;;;;;;5096663;28;20468;-82
2023/01/28 11:37:25;;;;;;;3.40;0.87;;;1.90;99.90;;;;;;5096490;28;20447;-83
2023/01/28 11:40:02;;;;;;;0.70;0.70;;;1.90;99.90;;;;;;5096497;28;20448;-83
2023/01/28 11:42:30;;;;;;;0.80;0.77;;;1.90;99.90;;;;;;5096286;28;20930;-82
2023/01/28 11:44:56;;;;;;;1.50;1.40;;;1.90;99.90;;;;;;5096399;28;20455;-81
2023/01/28 11:47:38;;;;;;;0.70;0.53;;;1.90;99.90;;;;;;5096276;28;20799;-81
2023/01/28 11:50:18;;;;;;;0.67;0.50;;;2.00;99.90;;;;;;5096237;28;20433;-82
2023/01/28 11:52:57;;;;;;;0.40;0.40;;;1.90;99.90;;;;;;5095937;28;20418;-83
2023/01/28 11:55:39;;;;;;;1.13;0.47;;;2.00;99.90;;;;;;5095027;28;20848;-83
2023/01/28 11:58:20;;;;;;;0.33;0.33;;;2.00;99.90;;;;;;5095765;28;20892;-83
2023/01/28 12:00:57;;;;;;;1.77;1.63;;;1.80;99.90;;;;;;5096131;28;20444;-84
2023/01/28 12:03:53;;;;;;;0.60;0.60;;;1.90;99.90;;;;;;5095700;28;20421;-84
2023/01/28 12:06:36;;;;;;;0.50;0.50;;;1.90;99.90;;;;;;5095561;28;20605;-84
2023/01/28 12:09:15;;;;;;;0.30;0.30;;;1.80;99.90;;;;;;5095921;28;20456;-84
2023/01/28 12:12:11;;;;;;;0.40;0.40;;;1.80;99.90;;;;;;5095531;28;20437;-84
2023/01/28 12:14:56;;;;;;;0.30;0.30;;;1.80;99.90;;;;;;5095457;28;20519;-83
2023/01/28 12:17:33;;;;;;;6.67;2.20;;;1.80;99.90;;;;;;5095650;28;20453;-83
2023/01/28 12:20:15;;;;;;;0.50;0.50;;;1.80;99.90;;;;;;5095549;28;20448;-84
2023/01/28 12:23:18;;;;;;;0.30;0.30;;;1.70;99.90;;;;;;5095634;28;20908;-84
2023/01/28 12:26:02;;;;;;;0.30;0.30;;;1.70;99.90;;;;;;5095175;28;20837;-83
2023/01/28 12:28:43;;;;;;;6.17;0.73;;;1.80;99.90;;;;;;5095183;28;20429;-84
2023/01/28 12:31:43;;;;;;;0.40;0.30;;;1.80;99.90;;;;;;5095435;28;20436;-84
2023/01/28 12:34:38;;;;;;;0.97;0.97;;;1.80;99.90;;;;;;5070758;28;20481;-84
2023/01/28 12:37:09;;;;;;;0.60;0.60;;;1.80;99.90;;;;;;5081960;28;20472;-84
2023/01/28 12:39:48;;;;;;;0.60;0.50;;;1.80;99.90;;;;;;5095300;28;20444;-84
2023/01/28 12:42:33;;;;;;;0.43;0.30;;;1.80;99.90;;;;;;5095295;28;20443;-84
2023/01/28 12:45:04;;;;;;;2.00;0.40;;;1.80;99.90;;;;;;5095151;28;20424;-84
2023/01/28 12:47:35;;;;;;;0.30;0.30;;;1.80;99.90;;;;;;5094782;28;20931;-84
2023/01/28 12:50:11;;;;;;;1.17;0.50;;;1.90;99.90;;;;;;5095052;28;20433;-84
2023/01/28 12:52:44;;;;;;;0.50;0.50;;;1.90;99.90;;;;;;5094738;28;20966;-84
2023/01/28 12:55:16;;;;;;;0.30;0.30;;;1.80;99.90;;;;;;5094807;28;20857;-84
2023/01/28 12:57:45;;;;;;;1.07;1.07;;;1.80;99.90;;;;;;5094641;28;20433;-84
2023/01/28 13:00:22;;;;;;;0.40;0.40;;;1.90;99.90;;;;;;5094827;28;20448;-84
2023/01/28 13:02:53;;;;;;;0.37;0.37;;;1.80;99.90;;;;;;5094870;28;20440;-84
2023/01/28 13:05:25;;;;;;;0.60;0.60;;;1.80;99.90;;;;;;5094691;28;20457;-84
2023/01/28 13:07:57;;;;;;;0.60;0.60;;;1.80;99.90;;;;;;5093824;28;20425;-84
2023/01/28 13:10:28;;;;;;;0.97;0.57;;;1.80;99.90;;;;;;5094631;28;20425;-83
2023/01/28 13:12:57;;;;;;;2.97;0.70;;;1.80;99.90;;;;;;5094422;28;20440;-84
2023/01/28 13:15:25;;;;;;;0.50;0.50;;;1.70;99.90;;;;;;5094101;28;20492;-84
2023/01/28 13:17:57;;;;;;;2.00;1.90;;;1.70;99.90;;;;;;5094531;28;20452;-84
2023/01/28 13:20:36;;;;;;;1.73;0.60;;;1.70;99.90;;;;;;5094230;28;20944;-84
2023/01/28 13:23:06;;;;;;;0.90;0.63;;;1.60;99.90;;;;;;5094470;28;20900;-84
2023/01/28 13:25:34;;;;;;;0.40;0.40;;;1.60;99.90;;;;;;5094267;28;20830;-84
2023/01/28 13:28:05;;;;;;;0.87;0.60;;;1.50;99.90;;;;;;5094332;28;20453;-84
2023/01/28 13:30:33;;;;;;;0.43;0.43;;;1.50;99.90;;;;;;5094311;28;20425;-84
2023/01/28 13:33:02;;;;;;;2.20;1.17;;;1.50;99.90;;;;;;5093934;28;20943;-84
2023/01/28 13:35:32;;;;;;;1.43;1.33;;;1.50;99.90;;;;;;5094011;28;20480;-84
2023/01/28 13:38:06;;;;;;;0.50;0.40;;;1.50;99.90;;;;;;5094202;28;20425;-84
2023/01/28 13:40:33;;;;;;;0.30;0.30;;;1.50;99.90;;;;;;5094208;28;20482;-84
2023/01/28 13:43:04;;;;;;;0.30;0.30;;;1.50;99.90;;;;;;5094083;28;20817;-84
2023/01/28 13:45:32;;;;;;;0.30;0.30;;;1.60;99.90;;;;;;5093962;28;20510;-84
2023/01/28 13:48:13;;;;;;;0.80;0.73;;;1.60;99.90;;;;;;5093954;28;20451;-83
2023/01/28 13:50:43;;;;;;;0.30;0.30;;;1.70;99.90;;;;;;5093932;28;20432;-84